Time;durP1;ratioP1;P1;durP2;ratioP2;P2;SDS_P1;SDS_P2;PMS_P1;PMS_P2;Temp;Humidity;BMP_temperature;BMP_pressure;BME280_temperature;BME280_humidity;BME280_pressure;Samples;Min_cycle;Max_cycle;Signal;HPM_P1;HPM_P2
2022/04/09 00:00:25;;;;;;;;;5.00;3.50;;;;;5.74;77.22;100323.41;4828456;29;45982;-87
2022/04/09 00:02:50;;;;;;;;;5.00;3.50;;;;;5.70;77.93;100320.16;4826822;29;45608;-86
2022/04/09 00:05:16;;;;;;;;;3.50;2.50;;;;;5.68;77.14;100323.75;4829332;29;45690;-86
2022/04/09 00:11:03;;;;;;;;;5.25;4.00;;;;;5.69;77.55;100328.84;4830647;29;46210;-85
2022/04/09 00:13:29;;;;;;;;;4.25;4.00;;;;;5.73;77.35;100332.97;4828868;29;45662;-85
2022/04/09 00:15:54;;;;;;;;;3.50;2.00;;;;;5.71;76.89;100340.03;4827567;29;45596;-86
2022/04/09 00:18:20;;;;;;;;;3.00;2.00;;;;;5.72;76.96;100339.06;4825805;29;45647;-85
2022/04/09 00:20:45;;;;;;;;;5.00;2.50;;;;;5.71;77.37;100344.38;4808969;29;48322;-86
2022/04/09 00:23:10;;;;;;;;;2.00;2.00;;;;;5.76;76.88;100360.56;4825707;29;45715;-85
2022/04/09 00:25:36;;;;;;;;;5.25;4.00;;;;;5.74;77.04;100352.00;4826097;29;45666;-86
2022/04/09 00:28:02;;;;;;;;;2.00;1.50;;;;;5.75;77.06;100351.06;4811262;29;45640;-85
2022/04/09 00:30:28;;;;;;;;;2.00;2.00;;;;;5.78;76.77;100363.88;4835296;29;45479;-85
2022/04/09 00:32:53;;;;;;;;;4.00;4.00;;;;;5.78;76.92;100356.94;4825976;29;45601;-84
2022/04/09 00:35:18;;;;;;;;;6.25;2.00;;;;;5.78;77.24;100356.94;4825101;29;45605;-85
2022/04/09 00:41:09;;;;;;;;;6.25;5.00;;;;;5.83;76.79;100354.91;4826323;29;46214;-86
2022/04/09 00:43:39;;;;;;;;;4.25;4.00;;;;;5.84;76.96;100347.94;4808722;29;45978;-87
2022/04/09 00:46:04;;;;;;;;;5.25;4.00;;;;;5.82;76.93;100347.22;4809350;29;45896;-84
2022/04/09 00:48:29;;;;;;;;;6.00;5.00;;;;;5.86;76.63;100356.50;4808327;29;47227;-85
2022/04/09 00:50:55;;;;;;;;;4.00;4.00;;;;;5.87;76.77;100353.88;4826132;29;46284;-85
2022/04/09 00:56:45;;;;;;;;;2.50;2.00;;;;;5.92;76.35;100360.56;4823728;29;45851;-85
2022/04/09 00:59:13;;;;;;;;;5.50;5.50;;;;;5.97;76.20;100375.00;4808674;29;47496;-86
2022/04/09 01:01:39;;;;;;;;;5.50;5.00;;;;;5.97;76.21;100369.78;4809095;29;48246;-85
2022/04/09 01:04:08;;;;;;;;;3.50;3.00;;;;;5.93;75.84;100357.91;4823948;29;45542;-84
2022/04/09 01:06:34;;;;;;;;;2.50;2.50;;;;;6.03;75.65;100369.44;4809166;29;45595;-85
2022/04/09 01:09:00;;;;;;;;;2.00;2.00;;;;;6.00;75.90;100364.41;4826325;29;46845;-85
2022/04/09 01:11:26;;;;;;;;;4.25;3.00;;;;;6.06;75.42;100368.41;4825719;29;45577;-85
2022/04/09 01:13:51;;;;;;;;;2.50;2.00;;;;;6.08;75.15;100372.63;4826048;29;45654;-85
2022/04/09 01:16:17;;;;;;;;;2.00;2.00;;;;;6.11;74.83;100377.66;4826208;29;45537;-85
2022/04/09 01:18:43;;;;;;;;;2.50;2.50;;;;;6.16;74.75;100383.41;4825542;29;45809;-85
2022/04/09 01:21:09;;;;;;;;;1.00;1.00;;;;;6.17;74.74;100381.66;4824396;29;46384;-86
2022/04/09 01:26:58;;;;;;;;;0.75;0.75;;;;;6.30;74.25;100388.69;4824334;29;45502;-86
2022/04/09 01:29:23;;;;;;;;;1.00;1.00;;;;;6.30;74.10;100391.31;4824567;29;46486;-86
2022/04/09 01:31:49;;;;;;;;;1.00;1.00;;;;;6.35;74.20;100406.63;4824427;29;46072;-86
2022/04/09 01:34:14;;;;;;;;;2.25;1.75;;;;;6.36;73.94;100417.88;4824255;29;46032;-86
2022/04/09 01:36:40;;;;;;;;;0.75;0.75;;;;;6.31;74.33;100412.94;4824757;29;45811;-87
2022/04/09 01:39:05;;;;;;;;;0.75;0.00;;;;;6.30;73.83;100424.28;4824238;29;45596;-87
2022/04/09 01:41:31;;;;;;;;;1.50;1.00;;;;;6.27;74.17;100433.06;4823985;29;46529;-86
2022/04/09 01:43:56;;;;;;;;;1.00;1.00;;;;;6.25;74.22;100434.09;4807842;29;45646;-87
2022/04/09 01:46:21;;;;;;;;;1.00;1.00;;;;;6.28;74.49;100437.38;4807995;29;45582;-86
2022/04/09 01:48:48;;;;;;;;;1.00;1.00;;;;;6.24;74.55;100445.44;4808736;29;48860;-85
2022/04/09 01:51:13;;;;;;;;;2.50;1.50;;;;;6.18;75.07;100438.81;4825344;29;46591;-85
2022/04/09 01:57:00;;;;;;;;;3.00;1.00;;;;;6.16;74.84;100435.44;4824845;29;45555;-85
2022/04/09 01:59:26;;;;;;;;;1.75;1.00;;;;;6.16;75.00;100438.03;4825042;29;45728;-84
2022/04/09 02:01:51;;;;;;;;;2.00;2.00;;;;;6.14;74.70;100432.09;4824428;29;46506;-85
2022/04/09 02:04:16;;;;;;;;;3.00;1.75;;;;;6.20;74.85;100444.78;4824058;29;45599;-86
2022/04/09 02:06:45;;;;;;;;;4.00;1.50;;;;;6.22;74.44;100439.47;4807655;29;45628;-86
2022/04/09 02:12:33;;;;;;;;;1.50;1.50;;;;;6.28;74.39;100447.75;4823468;29;45780;-86
2022/04/09 02:15:01;;;;;;;;;4.00;2.50;;;;;6.29;74.46;100448.59;4824084;29;45724;-84
2022/04/09 02:17:26;;;;;;;;;5.00;4.00;;;;;6.24;74.17;100438.47;4807031;29;45836;-84
2022/04/09 02:19:52;;;;;;;;;3.00;3.00;;;;;6.27;74.43;100456.50;4806957;29;47391;-84
2022/04/09 02:22:18;;;;;;;;;4.25;4.00;;;;;6.30;73.76;100463.28;4823563;29;45723;-85
2022/04/09 02:24:43;;;;;;;;;4.00;4.00;;;;;6.27;73.92;100456.50;4806819;29;45776;-86
2022/04/09 02:27:10;;;;;;;;;2.00;1.00;;;;;6.23;74.13;100449.78;4824119;29;45615;-85
2022/04/09 02:29:36;;;;;;;;;6.00;5.00;;;;;6.23;73.93;100455.00;4823948;29;46528;-85
2022/04/09 02:32:02;;;;;;;;;4.25;4.00;;;;;6.21;74.36;100453.38;4823525;29;45859;-85
2022/04/09 02:34:28;;;;;;;;;3.50;3.50;;;;;6.19;74.04;100458.69;4824242;29;45752;-86
2022/04/09 02:36:54;;;;;;;;;4.00;3.50;;;;;6.16;74.29;100463.19;4807734;29;45580;-86
2022/04/09 02:42:42;;;;;;;;;4.00;4.00;;;;;6.11;74.45;100483.44;4837176;29;45660;-84
2022/04/09 02:45:10;;;;;;;;;6.25;5.00;;;;;6.05;74.85;100468.16;4837006;29;45295;-86
2022/04/09 02:47:35;;;;;;;;;4.50;4.00;;;;;6.06;74.92;100469.84;4831877;29;45588;-85
2022/04/09 02:50:03;;;;;;;;;4.25;4.00;;;;;6.06;75.00;100473.28;4830488;29;46703;-85
2022/04/09 02:52:35;;;;;;;;;5.25;4.00;;;;;6.09;75.44;100482.69;4830425;29;46019;-86
2022/04/09 02:55:02;;;;;;;;;5.00;5.00;;;;;6.03;75.41;100480.41;4829806;29;45851;-84
2022/04/09 02:57:27;;;;;;;;;4.00;2.50;;;;;6.00;75.60;100473.59;4828671;29;45871;-86
2022/04/09 02:59:53;;;;;;;;;5.00;4.25;;;;;6.03;75.74;100488.22;4828695;29;46130;-85
2022/04/09 03:02:18;;;;;;;;;4.25;4.25;;;;;6.00;76.07;100489.22;4828811;29;45650;-86
2022/04/09 03:04:43;;;;;;;;;5.00;4.50;;;;;5.98;75.59;100493.69;4825230;29;45434;-85
2022/04/09 03:07:09;;;;;;;;;5.00;5.00;;;;;5.97;76.01;100511.94;4824994;29;45698;-86
2022/04/09 03:12:56;;;;;;;;;6.25;5.00;;;;;5.93;76.48;100526.03;4827496;29;45697;-85
2022/04/09 03:15:22;;;;;;;;;4.25;2.00;;;;;5.89;76.61;100525.34;4826991;29;45761;-86
2022/04/09 03:17:47;;;;;;;;;4.50;4.00;;;;;5.81;76.43;100519.69;4827090;29;45861;-84
2022/04/09 03:20:13;;;;;;;;;2.50;2.00;;;;;5.83;76.40;100523.06;4826638;29;46218;-84
2022/04/09 03:22:43;;;;;;;;;4.00;4.00;;;;;5.75;76.73;100509.63;4826367;29;45667;-84
2022/04/09 03:28:32;;;;;;;;;4.00;3.00;;;;;5.77;76.13;100500.00;4826347;29;45568;-82
2022/04/09 03:30:58;;;;;;;;;6.00;4.00;;;;;5.83;76.12;100504.88;4826157;29;46561;-84
2022/04/09 03:33:24;;;;;;;;;4.75;2.00;;;;;5.86;75.31;100509.88;4826425;29;46432;-82
2022/04/09 03:35:49;;;;;;;;;1.50;0.50;;;;;5.89;75.52;100517.53;4827017;29;45627;-84
2022/04/09 03:38:15;;;;;;;;;3.50;3.00;;;;;5.90;75.15;100537.44;4825853;29;45607;-84
2022/04/09 03:40:40;;;;;;;;;3.00;2.00;;;;;5.93;74.96;100542.47;4809075;29;48484;-84
2022/04/09 03:43:06;;;;;;;;;4.00;2.00;;;;;5.93;75.27;100539.88;4825934;29;46019;-83
2022/04/09 03:45:32;;;;;;;;;4.00;3.00;;;;;5.93;75.46;100539.88;4826283;29;45592;-85
2022/04/09 03:47:57;;;;;;;;;4.00;2.00;;;;;5.95;75.41;100543.22;4826154;29;45748;-87
2022/04/09 03:50:22;;;;;;;;;4.00;4.00;;;;;5.98;75.21;100545.69;4826043;29;46714;-84
2022/04/09 03:52:51;;;;;;;;;2.00;2.00;;;;;5.99;74.83;100547.38;4825778;29;45602;-85
2022/04/09 03:58:38;;;;;;;;;5.00;4.25;;;;;5.94;74.16;100538.94;4813790;29;46968;-82
2022/04/09 04:01:04;;;;;;;;;2.50;2.00;;;;;5.87;73.89;100540.19;4807558;29;46919;-84
2022/04/09 04:03:30;;;;;;;;;1.00;1.00;;;;;5.84;74.25;100535.97;4807612;29;45996;-84
2022/04/09 04:05:55;;;;;;;;;3.50;3.50;;;;;5.83;73.89;100539.47;4807679;29;45543;-85
2022/04/09 04:08:21;;;;;;;;;2.50;1.75;;;;;5.83;74.07;100543.84;4808779;29;45800;-85
2022/04/09 04:10:46;;;;;;;;;2.00;2.00;;;;;5.86;74.46;100554.94;4815816;29;45632;-83
2022/04/09 04:13:12;;;;;;;;;5.00;4.00;;;;;5.86;74.39;100551.47;4820052;29;45318;-82
2022/04/09 04:15:37;;;;;;;;;1.75;1.25;;;;;5.84;74.39;100551.56;4813722;29;45702;-84
2022/04/09 04:18:03;;;;;;;;;2.50;2.00;;;;;5.85;74.29;100542.84;4812398;29;45660;-85
2022/04/09 04:20:29;;;;;;;;;2.00;2.00;;;;;5.83;74.33;100544.66;4810552;29;46520;-83
2022/04/09 04:22:55;;;;;;;;;4.00;4.00;;;;;5.86;74.23;100548.88;4809411;29;46130;-83
2022/04/09 04:28:42;;;;;;;;;4.00;2.00;;;;;5.90;73.93;100550.44;4808473;29;45566;-86
2022/04/09 04:31:08;;;;;;;;;4.00;4.00;;;;;5.90;74.38;100553.88;4809121;29;45759;-86
2022/04/09 04:33:34;;;;;;;;;4.00;4.00;;;;;5.89;74.29;100552.19;4809016;29;46352;-86
2022/04/09 04:35:59;;;;;;;;;4.25;4.00;;;;;5.90;74.28;100542.63;4793116;29;45741;-85
2022/04/09 04:38:25;;;;;;;;;2.00;2.00;;;;;5.97;74.03;100550.94;4809477;29;45572;-83
2022/04/09 04:44:12;;;;;;;;;5.00;4.00;;;;;6.03;73.71;100550.63;4806485;29;46349;-83
2022/04/09 04:46:39;;;;;;;;;5.00;4.00;;;;;6.04;74.09;100547.94;4806877;29;46115;-87
2022/04/09 04:49:04;;;;;;;;;5.00;5.00;;;;;6.09;73.89;100555.50;4806811;29;45683;-84
2022/04/09 04:51:30;;;;;;;;;5.00;4.00;;;;;6.10;73.60;100552.00;4806403;29;46543;-86
2022/04/09 04:53:55;;;;;;;;;1.75;1.00;;;;;6.12;74.00;100560.53;4806693;29;45639;-85
2022/04/09 04:56:23;;;;;;;;;10.50;6.00;;;;;6.13;73.67;100557.84;4806748;29;45904;-85
2022/04/09 04:58:49;;;;;;;;;4.75;4.25;;;;;6.19;73.62;100573.13;4801313;29;46114;-85
2022/04/09 05:01:14;;;;;;;;;6.00;5.00;;;;;6.21;74.08;100568.66;4807531;29;47457;-84
2022/04/09 05:03:40;;;;;;;;;6.50;5.00;;;;;6.25;73.63;100567.59;4808077;29;48252;-83
2022/04/09 05:06:05;;;;;;;;;6.00;5.00;;;;;6.26;73.88;100573.66;4824796;29;45773;-83
2022/04/09 05:08:34;;;;;;;;;5.00;5.00;;;;;6.28;73.72;100572.63;4824736;29;45740;-85
2022/04/09 05:14:21;;;;;;;;;6.25;5.50;;;;;6.34;73.88;100581.88;4824253;29;45798;-86
2022/04/09 05:16:46;;;;;;;;;7.25;5.75;;;;;6.35;73.93;100586.16;4824435;29;45697;-85
2022/04/09 05:19:12;;;;;;;;;6.50;5.75;;;;;6.38;73.65;100580.78;4824565;29;45748;-85
2022/04/09 05:21:38;;;;;;;;;10.25;8.25;;;;;6.40;73.69;100581.53;4824162;29;46396;-85
2022/04/09 05:24:03;;;;;;;;;9.50;7.50;;;;;6.44;73.34;100585.66;4824273;29;46096;-84
2022/04/09 05:26:29;;;;;;;;;8.00;8.00;;;;;6.44;73.86;100580.44;4824413;29;45673;-83
2022/04/09 05:28:54;;;;;;;;;8.50;8.00;;;;;6.45;73.25;100576.94;4824170;29;45622;-85
2022/04/09 05:31:27;;;;;;;;;6.00;5.50;;;;;6.47;73.64;100579.44;4826786;29;46379;-84
2022/04/09 05:33:56;;;;;;;;;9.00;8.00;;;;;6.46;73.58;100583.81;4824829;29;46767;-84
2022/04/09 05:36:21;;;;;;;;;9.25;8.00;;;;;6.47;73.66;100585.50;4807513;29;45589;-83
2022/04/09 05:38:47;;;;;;;;;11.50;9.50;;;;;6.48;73.70;100591.53;4824939;29;45906;-86
2022/04/09 05:44:35;;;;;;;;;9.00;8.25;;;;;6.53;73.39;100595.53;4824097;29;45735;-86
2022/04/09 05:47:01;;;;;;;;;12.00;12.00;;;;;6.55;73.61;100603.28;4824144;29;45929;-86
2022/04/09 05:49:27;;;;;;;;;10.00;8.50;;;;;6.55;73.38;100605.88;4824621;29;45615;-87
2022/04/09 05:51:52;;;;;;;;;9.75;9.75;;;;;6.58;73.22;100606.56;4825011;29;47026;-89
2022/04/09 05:54:18;;;;;;;;;9.00;8.00;;;;;6.60;73.67;100603.88;4825864;29;46102;-87
2022/04/09 06:00:09;;;;;;;;;8.50;8.00;;;;;6.62;73.47;100608.06;4825560;29;45828;-84
2022/04/09 06:02:37;;;;;;;;;11.00;10.00;;;;;6.66;73.12;100617.38;4825687;29;45781;-88
2022/04/09 06:05:03;;;;;;;;;12.25;11.00;;;;;6.65;73.68;100615.69;4826107;29;46092;-84
2022/04/09 06:07:28;;;;;;;;;9.75;9.00;;;;;6.69;73.31;100614.59;4808005;29;46560;-85
2022/04/09 06:09:54;;;;;;;;;10.50;10.50;;;;;6.65;73.39;100602.69;4824174;29;45651;-86
2022/04/09 06:12:19;;;;;;;;;12.25;9.50;;;;;6.75;73.56;100611.66;4823693;29;46411;-85
2022/04/09 06:14:44;;;;;;;;;10.50;9.00;;;;;6.74;73.45;100607.41;4823931;29;46120;-84
2022/04/09 06:17:10;;;;;;;;;13.00;8.25;;;;;6.74;73.49;100615.22;4824041;29;45636;-85
2022/04/09 06:19:35;;;;;;;;;11.00;10.00;;;;;6.81;73.54;100623.50;4812342;29;45927;-83
2022/04/09 06:22:01;;;;;;;;;10.00;8.00;;;;;6.80;73.38;100623.63;4834726;29;45504;-82
2022/04/09 06:24:27;;;;;;;;;8.50;7.75;;;;;6.86;73.48;100639.72;4833801;29;46263;-84
2022/04/09 06:30:14;;;;;;;;;11.00;9.50;;;;;6.87;73.44;100648.38;4831387;29;45559;-85
2022/04/09 06:32:40;;;;;;;;;10.00;9.75;;;;;6.89;73.39;100656.94;4826098;29;45581;-86
2022/04/09 06:35:06;;;;;;;;;8.00;7.00;;;;;6.87;73.52;100654.41;4825327;29;45666;-88
2022/04/09 06:37:32;;;;;;;;;9.00;8.00;;;;;6.86;73.22;100657.94;4824873;29;45898;-86
2022/04/09 06:39:57;;;;;;;;;8.25;6.00;;;;;6.86;73.64;100657.94;4824757;29;45578;-85
2022/04/09 06:42:22;;;;;;;;;7.75;5.00;;;;;6.87;73.49;100664.00;4824086;29;45615;-84
2022/04/09 06:44:48;;;;;;;;;11.00;9.00;;;;;6.87;73.56;100661.38;4806668;29;46415;-83
2022/04/09 06:47:13;;;;;;;;;6.75;5.00;;;;;6.82;73.55;100661.66;4824073;29;45615;-85
2022/04/09 06:49:39;;;;;;;;;6.00;6.00;;;;;6.74;73.61;100664.69;4824202;29;45527;-85
2022/04/09 06:52:05;;;;;;;;;8.25;5.50;;;;;6.77;73.92;100681.03;4823999;29;45591;-85
2022/04/09 06:54:31;;;;;;;;;7.50;6.00;;;;;6.75;73.97;100681.13;4824071;29;46065;-84
2022/04/09 07:00:18;;;;;;;;;5.50;5.50;;;;;6.71;74.22;100679.63;4823866;29;45694;-84
2022/04/09 07:02:43;;;;;;;;;6.50;4.25;;;;;6.65;74.38;100683.38;4807204;29;46963;-86
2022/04/09 07:05:09;;;;;;;;;7.00;6.00;;;;;6.66;74.26;100686.84;4823632;29;46619;-87
2022/04/09 07:07:34;;;;;;;;;5.00;4.50;;;;;6.64;74.51;100696.50;4824673;29;45646;-89
2022/04/09 07:10:10;;;;;;;;;5.25;5.25;;;;;6.63;74.43;100702.63;4825995;29;45621;-86
2022/04/09 07:15:57;;;;;;;;;4.50;4.00;;;;;6.64;74.56;100709.53;4826767;29;45583;-87
2022/04/09 07:18:23;;;;;;;;;5.00;5.00;;;;;6.63;74.33;100698.25;4825232;29;45515;-84
2022/04/09 07:20:49;;;;;;;;;5.75;5.00;;;;;6.64;74.39;100712.13;4825523;29;45523;-83
2022/04/09 07:23:14;;;;;;;;;6.50;4.00;;;;;6.63;74.62;100702.63;4825282;29;46292;-87
2022/04/09 07:25:42;;;;;;;;;4.00;2.00;;;;;6.68;74.66;100708.44;4827538;29;45511;-85
2022/04/09 07:28:07;;;;;;;;;5.75;4.00;;;;;6.71;74.38;100708.25;4830572;29;45622;-86
2022/04/09 07:30:33;;;;;;;;;4.50;4.50;;;;;6.75;74.75;100709.75;4829736;29;45693;-82
2022/04/09 07:32:58;;;;;;;;;2.50;2.50;;;;;6.78;74.34;100719.19;4830273;29;45645;-88
2022/04/09 07:35:24;;;;;;;;;4.00;3.50;;;;;6.80;74.21;100712.13;4829359;29;45922;-82
2022/04/09 07:37:53;;;;;;;;;4.00;4.00;;;;;6.82;73.89;100708.50;4810930;29;45633;-85
2022/04/09 07:40:20;;;;;;;;;5.25;5.00;;;;;6.89;74.19;100715.09;4827493;29;45520;-86
2022/04/09 07:46:07;;;;;;;;;5.50;5.00;;;;;6.98;74.21;100734.56;4827610;29;45774;-86
2022/04/09 07:48:34;;;;;;;;;4.25;4.00;;;;;6.94;74.01;100720.88;4824323;29;45679;-86
2022/04/09 07:50:59;;;;;;;;;8.50;6.75;;;;;6.94;74.09;100723.47;4809315;29;45553;-88
2022/04/09 07:53:24;;;;;;;;;5.75;4.75;;;;;6.96;74.16;100733.81;4827300;29;45539;-88
2022/04/09 07:55:50;;;;;;;;;5.00;5.00;;;;;6.95;73.96;100734.75;4809678;29;48249;-86
2022/04/09 07:58:16;;;;;;;;;5.25;5.00;;;;;7.01;73.67;100750.88;4828726;29;45718;-85
2022/04/09 08:00:43;;;;;;;;;7.75;6.00;;;;;7.01;73.59;100750.88;4810809;29;45526;-87
2022/04/09 08:03:09;;;;;;;;;6.00;5.00;;;;;6.98;73.62;100742.38;4810078;29;47267;-84
2022/04/09 08:05:35;;;;;;;;;5.25;4.00;;;;;7.03;73.42;100759.44;4825277;29;46600;-84
2022/04/09 08:08:01;;;;;;;;;9.00;7.00;;;;;7.03;73.66;100740.38;4825470;29;45705;-84
2022/04/09 08:10:26;;;;;;;;;9.00;5.00;;;;;7.09;72.88;100748.69;4808782;29;45944;-84
2022/04/09 08:16:14;;;;;;;;;5.25;5.00;;;;;7.10;72.63;100747.78;4825535;29;45620;-88
2022/04/09 08:18:39;;;;;;;;;4.00;4.00;;;;;7.08;72.31;100764.41;4808673;29;45635;-86
2022/04/09 08:21:05;;;;;;;;;5.25;5.25;;;;;7.09;72.22;100753.91;4825570;29;45700;-86
2022/04/09 08:23:31;;;;;;;;;5.75;5.00;;;;;7.06;72.40;100745.41;4809219;29;45850;-85
2022/04/09 08:25:57;;;;;;;;;5.00;4.75;;;;;7.06;72.22;100759.28;4808284;29;47070;-84
2022/04/09 08:31:47;;;;;;;;;8.25;5.75;;;;;7.11;72.58;100772.06;4829212;29;45818;-86
2022/04/09 08:34:13;;;;;;;;;6.00;5.75;;;;;7.09;72.52;100758.28;4828090;29;45870;-82
2022/04/09 08:36:38;;;;;;;;;7.50;6.00;;;;;7.15;72.38;100769.19;4826642;29;45663;-83
2022/04/09 08:39:03;;;;;;;;;6.00;5.75;;;;;7.16;72.27;100777.88;4825791;29;45955;-84
2022/04/09 08:41:29;;;;;;;;;5.50;5.50;;;;;7.24;72.62;100775.66;4825798;29;45695;-85
2022/04/09 08:43:54;;;;;;;;;8.50;8.50;;;;;7.25;72.35;100785.16;4825336;29;46294;-86
2022/04/09 08:46:20;;;;;;;;;6.25;6.00;;;;;7.27;72.21;100787.69;4808893;29;46148;-87
2022/04/09 08:48:48;;;;;;;;;5.25;5.25;;;;;7.27;72.19;100791.16;4825825;29;45648;-87
2022/04/09 08:51:13;;;;;;;;;6.50;6.50;;;;;7.27;72.07;100791.16;4808654;29;45698;-87
2022/04/09 08:53:40;;;;;;;;;6.25;6.25;;;;;7.22;71.64;100824.44;4825217;29;45706;-84
2022/04/09 08:56:06;;;;;;;;;6.50;4.25;;;;;7.18;72.13;100825.50;4825311;29;45530;-88
2022/04/09 09:01:54;;;;;;;;;4.00;4.00;;;;;7.12;72.17;100839.72;4823478;29;45660;-83
2022/04/09 09:04:19;;;;;;;;;4.00;4.00;;;;;7.12;70.94;100812.81;4829857;29;46550;-86
2022/04/09 09:06:45;;;;;;;;;4.75;4.75;;;;;7.08;70.75;100824.31;4831142;29;45779;-81
2022/04/09 09:09:29;;;;;;;;;5.00;4.75;;;;;7.02;71.11;100832.44;4827751;29;45727;-86
2022/04/09 09:11:56;;;;;;;;;5.00;5.00;;;;;6.99;70.85;100815.22;4824152;29;45701;-83
2022/04/09 09:14:26;;;;;;;;;4.00;4.00;;;;;6.97;71.00;100814.47;4824696;29;46394;-83
2022/04/09 09:16:51;;;;;;;;;2.50;2.00;;;;;7.01;71.10;100817.75;4807459;29;47527;-81
2022/04/09 09:19:17;;;;;;;;;4.00;4.00;;;;;7.05;70.50;100829.69;4824482;29;45655;-83
2022/04/09 09:21:54;;;;;;;;;4.75;4.75;;;;;7.09;70.61;100828.59;4824578;29;45596;-82
2022/04/09 09:24:20;;;;;;;;;5.00;3.00;;;;;7.08;70.04;100826.91;4824181;29;46463;-79
2022/04/09 09:33:21;;;;;;;;;2.00;2.00;;;;;7.15;69.49;100849.97;4824108;29;45734;-82
2022/04/09 09:35:51;;;;;;;;;4.00;4.00;;;;;7.22;69.99;100855.69;4824119;29;45599;-84
2022/04/09 09:38:21;;;;;;;;;4.00;4.00;;;;;7.21;69.22;100856.63;4823838;29;46164;-81
2022/04/09 09:40:47;;;;;;;;;4.00;3.00;;;;;7.17;69.48;100852.50;4823872;29;45849;-80
2022/04/09 09:43:17;;;;;;;;;5.25;5.00;;;;;7.24;69.33;100861.66;4824471;29;45908;-84
2022/04/09 09:45:43;;;;;;;;;6.00;5.25;;;;;7.31;68.69;100868.22;4826164;29;46517;-83
2022/04/09 09:48:29;;;;;;;;;5.25;5.00;;;;;7.39;68.45;100873.03;4826010;29;46088;-82
2022/04/09 09:50:57;;;;;;;;;6.00;5.00;;;;;7.40;68.63;100870.34;4827421;29;45850;-85
2022/04/09 09:53:31;;;;;;;;;6.00;6.00;;;;;7.49;68.34;100875.06;4831148;29;45578;-83
2022/04/09 09:55:59;;;;;;;;;5.75;5.00;;;;;7.53;68.20;100879.19;4827289;29;46528;-83
2022/04/09 09:58:26;;;;;;;;;7.25;6.00;;;;;7.56;68.21;100883.38;4807453;29;47522;-85
2022/04/09 10:00:51;;;;;;;;;5.75;5.00;;;;;7.59;68.46;100888.44;4823549;29;45895;-84
2022/04/09 10:03:18;;;;;;;;;8.50;6.50;;;;;7.63;68.28;100891.72;4823981;29;45684;-84
2022/04/09 10:05:48;;;;;;;;;2.50;2.00;;;;;7.68;68.17;100897.53;4823935;29;46555;-85
2022/04/09 10:08:13;;;;;;;;;6.25;5.00;;;;;7.69;67.95;100909.63;4824149;29;46214;-85
2022/04/09 10:10:43;;;;;;;;;5.00;5.00;;;;;7.71;68.22;100911.25;4824401;29;45556;-83
2022/04/09 10:13:09;;;;;;;;;9.00;6.00;;;;;7.75;67.40;100915.38;4825347;29;45471;-85
2022/04/09 10:15:36;;;;;;;;;8.75;7.25;;;;;7.82;67.45;100929.78;4824574;29;45624;-85
2022/04/09 10:18:06;;;;;;;;;8.00;8.00;;;;;7.86;67.15;100933.03;4828235;29;45564;-83
2022/04/09 10:23:05;;;;;;;;;6.75;6.75;;;;;7.91;67.48;100939.69;4815484;29;47069;-81
2022/04/09 10:25:32;;;;;;;;;10.50;10.25;;;;;7.91;67.35;100929.25;4807090;29;45885;-82
2022/04/09 10:28:03;;;;;;;;;6.75;6.75;;;;;7.92;67.65;100923.13;4807734;29;46325;-86
2022/04/09 10:30:39;;;;;;;;;9.00;7.00;;;;;7.96;67.13;100915.94;4815666;29;45848;-82
2022/04/09 10:33:20;;;;;;;;;6.75;6.00;;;;;8.01;66.97;100940.03;4809504;29;45678;-83
2022/04/09 10:35:46;;;;;;;;;7.00;7.00;;;;;7.95;67.19;100945.56;4810499;29;45937;-81
2022/04/09 10:38:19;;;;;;;;;9.00;9.00;;;;;7.97;67.01;100943.72;4803371;29;46319;-84
2022/04/09 10:40:45;;;;;;;;;8.00;7.50;;;;;7.97;67.00;100938.50;4806681;29;45715;-83
2022/04/09 10:43:39;;;;;;;;;7.00;7.00;;;;;7.97;66.99;100944.56;4811205;29;45714;-83
2022/04/09 10:46:08;;;;;;;;;9.00;9.00;;;;;7.97;67.17;100946.34;4817702;29;46241;-83
2022/04/09 10:48:34;;;;;;;;;7.50;7.00;;;;;8.00;67.15;100949.59;4815747;29;46165;-83
2022/04/09 10:51:07;;;;;;;;;11.50;9.50;;;;;8.02;66.99;100952.16;4802270;29;45875;-83
2022/04/09 10:53:33;;;;;;;;;9.50;7.00;;;;;8.00;66.87;100960.03;4811072;29;45743;-82
2022/04/09 10:56:20;;;;;;;;;8.00;7.00;;;;;8.01;67.00;100955.66;4810763;29;45651;-82
2022/04/09 10:59:12;;;;;;;;;6.50;6.25;;;;;8.02;67.20;100949.53;4814427;29;46147;-84
2022/04/09 11:01:46;;;;;;;;;9.00;7.25;;;;;8.01;67.10;100955.66;4802904;29;45904;-85
2022/04/09 11:04:45;;;;;;;;;10.50;7.50;;;;;7.98;66.96;100958.47;4803831;29;45711;-81
2022/04/09 11:07:14;;;;;;;;;8.50;7.00;;;;;7.97;67.09;100960.22;4810458;29;45724;-81
2022/04/09 11:09:55;;;;;;;;;13.50;8.00;;;;;8.01;67.06;100958.28;4808938;29;46995;-82
2022/04/09 11:12:41;;;;;;;;;9.50;9.00;;;;;8.01;67.19;100963.50;4805209;29;46007;-83
2022/04/09 11:15:11;;;;;;;;;10.25;9.75;;;;;7.99;67.17;100965.34;4801858;29;46776;-85
2022/04/09 11:17:37;;;;;;;;;7.50;6.00;;;;;8.05;67.17;100972.84;4809019;29;48880;-82
2022/04/09 11:20:16;;;;;;;;;7.00;7.00;;;;;8.07;67.05;100971.00;4792889;29;46913;-85
2022/04/09 11:22:53;;;;;;;;;6.00;6.00;;;;;8.09;66.88;100970.91;4821400;29;45766;-85
2022/04/09 11:25:30;;;;;;;;;8.00;6.50;;;;;8.14;66.50;100974.13;4819341;29;45904;-85
2022/04/09 11:28:13;;;;;;;;;8.50;8.50;;;;;8.19;66.53;100986.00;4821353;29;47125;-85
2022/04/09 11:30:52;;;;;;;;;10.50;7.00;;;;;8.18;66.38;100971.25;4822555;29;46921;-87
2022/04/09 11:33:17;;;;;;;;;10.25;7.50;;;;;8.24;66.15;100981.34;4831179;29;45801;-85
2022/04/09 11:35:43;;;;;;;;;7.00;6.25;;;;;8.22;66.08;100967.53;4827602;29;45786;-84
2022/04/09 11:38:10;;;;;;;;;12.00;8.75;;;;;8.30;65.68;100975.81;4825559;29;45739;-86
2022/04/09 11:40:35;;;;;;;;;9.50;7.50;;;;;8.34;65.92;100977.34;4807450;29;45793;-87
2022/04/09 11:43:01;;;;;;;;;7.50;7.50;;;;;8.42;65.79;100974.31;4825956;29;45784;-84
2022/04/09 11:45:28;;;;;;;;;9.75;9.75;;;;;8.45;65.68;100973.28;4812214;29;45791;-88
2022/04/09 11:47:58;;;;;;;;;10.50;9.50;;;;;8.46;65.48;100973.19;4817306;29;45867;-85
2022/04/09 11:50:25;;;;;;;;;9.25;9.25;;;;;8.52;65.40;100979.84;4826251;29;46148;-89
2022/04/09 11:52:52;;;;;;;;;8.25;6.75;;;;;8.52;64.75;100980.69;4832482;29;46025;-85
2022/04/09 11:55:18;;;;;;;;;8.00;8.00;;;;;8.57;64.58;100978.66;4804958;29;46055;-85
2022/04/09 11:57:54;;;;;;;;;6.00;6.00;;;;;8.64;64.04;100992.19;4815024;29;46225;-84
2022/04/09 12:00:23;;;;;;;;;7.00;6.75;;;;;8.69;64.00;100993.59;4819439;29;45951;-90
2022/04/09 12:02:49;;;;;;;;;8.00;6.75;;;;;8.74;63.56;100994.22;4811041;29;46041;-83
2022/04/09 12:05:14;;;;;;;;;6.75;5.25;;;;;8.73;62.91;100989.91;4825249;29;46029;-84
2022/04/09 12:07:44;;;;;;;;;6.25;5.00;;;;;8.76;63.29;100983.66;4825052;29;45757;-86
2022/04/09 12:10:31;;;;;;;;;8.00;7.00;;;;;8.77;62.64;100977.50;4817163;29;46088;-87
2022/04/09 12:13:08;;;;;;;;;6.00;6.00;;;;;8.82;61.72;100978.06;4806434;29;45798;-85
2022/04/09 12:15:35;;;;;;;;;6.75;6.50;;;;;8.83;62.13;100978.00;4794527;29;45919;-86
2022/04/09 12:18:04;;;;;;;;;6.25;6.00;;;;;8.82;62.16;100978.06;4825742;29;46297;-85
2022/04/09 12:20:37;;;;;;;;;7.50;6.50;;;;;8.79;61.86;100981.72;4818233;29;46189;-84
2022/04/09 12:23:08;;;;;;;;;6.75;6.75;;;;;8.77;61.86;100987.94;4778814;29;46177;-85
2022/04/09 12:25:44;;;;;;;;;8.75;7.50;;;;;8.75;61.59;100992.41;4809627;29;45782;-86
2022/04/09 12:28:24;;;;;;;;;8.25;7.00;;;;;8.74;61.06;100990.75;4796721;29;47654;-90
2022/04/09 12:30:51;;;;;;;;;9.75;7.50;;;;;8.80;60.74;100990.38;4790919;29;46125;-87
2022/04/09 12:33:18;;;;;;;;;10.00;8.25;;;;;8.78;60.90;100992.25;4798461;29;46448;-89
2022/04/09 12:35:44;;;;;;;;;9.00;7.00;;;;;8.79;61.19;100996.56;4800643;29;45664;-91
2022/04/09 12:38:10;;;;;;;;;11.50;10.00;;;;;8.82;60.28;100980.69;4791775;29;47084;-91
2022/04/09 12:40:38;;;;;;;;;11.50;8.50;;;;;8.92;60.88;100997.50;4781400;29;47714;-92
2022/04/09 12:43:29;;;;;;;;;10.00;8.25;;;;;8.93;60.51;100980.06;4789726;29;46146;-87
2022/04/09 12:46:09;;;;;;;;;7.00;7.00;;;;;9.05;60.03;101000.25;4791721;29;45667;-91
2022/04/09 12:48:42;;;;;;;;;11.25;9.25;;;;;9.09;59.81;101000.00;4811426;29;46128;-88
2022/04/09 12:51:09;;;;;;;;;10.00;10.00;;;;;9.13;60.37;100990.19;4790838;29;47386;-89
2022/04/09 12:53:34;;;;;;;;;10.00;9.50;;;;;9.16;59.48;100993.47;4788919;29;45780;-89
2022/04/09 12:56:05;;;;;;;;;8.25;8.25;;;;;9.25;59.13;100994.69;4803822;29;45573;-92